Casper, Wyoming
Current Conditions -  °F | °C
As of 10:53 PM on Monday 20 Oct 2014 (Local Time) from KCPR Reporting Station
Clear Clear  
Wind Chill: 41°   Ceiling: Unl
Heat Index: 46°   Visibility: 10mi
Dew Point: 32°   Wind: 10mph
Humidity: 58%   Direction: 250°WSW
Pressure: 29.99"   Gusts: NA
Location:  42.85°N, 106.32°W
Report Text: KCPR 210453Z AUTO 25009KT 10SM CLR 08/00 A2999 RMK AO2 SLP114 T00780000
Loading
Personal Weather Stations






























Interactive Weather Map
Tropical Storm Tracking
New forecast layout! Learn more

10-Day Weather Forecast

Advertisements
Track Severe Weather on mobile